createdAt,value
2018-12-02T00:01:53.077Z,79.79
2018-12-02T00:04:22.298Z,80.78
2018-12-02T00:06:51.493Z,80.17
2018-12-02T00:09:20.791Z,80.33
2018-12-02T00:11:49.980Z,80.51
2018-12-02T00:14:19.156Z,79.36
2018-12-02T00:16:48.375Z,79.21
2018-12-02T00:19:17.561Z,79.56
2018-12-02T00:21:46.796Z,79.48
2018-12-02T00:24:15.992Z,80.46
2018-12-02T00:26:45.257Z,79.68
2018-12-02T00:29:14.443Z,79.37
2018-12-02T00:31:43.671Z,79.19
2018-12-02T00:34:12.858Z,79.91
2018-12-02T00:36:42.065Z,79.96
2018-12-02T00:39:11.259Z,79.59
2018-12-02T00:41:40.688Z,80.18
2018-12-02T00:44:09.759Z,80.12
2018-12-02T00:46:39.001Z,80.19
2018-12-02T00:49:08.254Z,79.37
2018-12-02T00:51:37.447Z,79.03
2018-12-02T00:54:07.147Z,79.57
2018-12-02T00:56:36.351Z,79.62
2018-12-02T00:59:05.592Z,79.41
2018-12-02T01:01:34.778Z,80.21
2018-12-02T01:04:04.005Z,79.83
2018-12-02T01:06:33.211Z,79.93
2018-12-02T01:09:02.462Z,79.48
2018-12-02T01:11:31.667Z,79.56
2018-12-02T01:14:00.879Z,80.20
2018-12-02T01:16:30.084Z,80.01
2018-12-02T01:18:59.343Z,81.02
2018-12-02T01:21:28.547Z,80.88
2018-12-02T01:23:57.773Z,80.19
2018-12-02T01:26:26.955Z,79.84
2018-12-02T01:28:56.243Z,80.06
2018-12-02T01:31:25.463Z,79.20
2018-12-02T01:33:54.644Z,79.54
2018-12-02T01:36:23.865Z,79.65
2018-12-02T01:38:53.115Z,79.28
2018-12-02T01:41:22.434Z,79.66
2018-12-02T01:43:51.647Z,79.03
2018-12-02T01:46:20.831Z,78.50
2018-12-02T01:48:50.204Z,79.16
2018-12-02T01:51:19.432Z,79.30
2018-12-02T01:53:48.575Z,79.38
2018-12-02T01:56:17.759Z,79.67
2018-12-02T01:58:46.939Z,79.52
2018-12-02T02:01:16.107Z,79.13
2018-12-02T02:03:45.371Z,79.16
2018-12-02T02:06:14.544Z,79.29
2018-12-02T02:08:43.736Z,78.99
2018-12-02T02:11:12.936Z,78.55
2018-12-02T02:13:42.167Z,78.58
2018-12-02T02:16:11.380Z,78.66
2018-12-02T02:18:40.562Z,79.07
2018-12-02T02:21:09.788Z,79.78
2018-12-02T02:23:38.971Z,79.09
2018-12-02T02:26:08.191Z,79.32
2018-12-02T02:28:37.362Z,79.47
2018-12-02T02:31:07.086Z,79.51
2018-12-02T02:33:36.290Z,79.14
2018-12-02T02:36:06.119Z,78.89
2018-12-02T02:38:35.333Z,78.46
2018-12-02T02:41:04.527Z,79.39
2018-12-02T02:43:33.781Z,79.25
2018-12-02T02:46:02.980Z,78.96
2018-12-02T02:48:32.131Z,78.80
2018-12-02T02:51:01.328Z,78.46
2018-12-02T02:53:30.511Z,79.07
2018-12-02T02:55:59.687Z,78.72
2018-12-02T02:58:28.922Z,78.87
2018-12-02T03:00:58.087Z,78.91
2018-12-02T03:03:27.302Z,78.34
2018-12-02T03:05:56.476Z,78.24
2018-12-02T03:08:25.671Z,78.05
2018-12-02T03:10:54.902Z,77.78
2018-12-02T03:13:24.101Z,76.99
2018-12-02T03:15:53.923Z,77.78
2018-12-02T03:18:23.111Z,77.00
2018-12-02T03:20:52.301Z,76.88
2018-12-02T03:23:21.520Z,77.34
2018-12-02T03:25:50.725Z,76.38
2018-12-02T03:28:20.004Z,76.54
2018-12-02T03:30:49.198Z,76.79
2018-12-02T03:33:18.458Z,76.60
2018-12-02T03:35:47.630Z,76.99
2018-12-02T03:38:16.803Z,77.56
2018-12-02T03:40:45.956Z,77.02
2018-12-02T03:43:15.155Z,77.25
2018-12-02T03:45:44.323Z,76.86
2018-12-02T03:48:13.530Z,77.09
2018-12-02T03:50:42.893Z,76.54
2018-12-02T03:53:12.112Z,76.80
2018-12-02T03:55:41.289Z,76.27
2018-12-02T03:58:10.447Z,76.19
2018-12-02T04:00:39.651Z,76.54
2018-12-02T04:03:08.882Z,77.05
2018-12-02T04:05:38.041Z,76.70
2018-12-02T04:08:07.570Z,77.07
2018-12-02T04:10:36.773Z,77.00
2018-12-02T04:13:06.129Z,77.97
2018-12-02T04:15:35.314Z,77.83
2018-12-02T04:18:04.543Z,77.91
2018-12-02T04:20:33.727Z,78.44
2018-12-02T04:23:02.878Z,78.07
2018-12-02T04:25:32.048Z,77.36
2018-12-02T04:28:01.243Z,77.41
2018-12-02T04:30:30.454Z,77.86
2018-12-02T04:32:59.677Z,77.52
2018-12-02T04:35:28.868Z,77.16
2018-12-02T04:37:58.021Z,77.75
2018-12-02T04:40:27.327Z,76.57
2018-12-02T04:42:56.523Z,76.86
2018-12-02T04:45:25.832Z,75.96
2018-12-02T04:47:55.015Z,76.07
2018-12-02T04:50:25.415Z,75.51
2018-12-02T04:52:54.580Z,76.22
2018-12-02T04:55:23.750Z,76.10
2018-12-02T04:57:52.983Z,75.73
2018-12-02T05:00:22.200Z,75.15
2018-12-02T05:02:53.150Z,74.68
2018-12-02T05:05:23.909Z,74.73
2018-12-02T05:07:53.788Z,74.14
2018-12-02T05:10:23.277Z,74.68
2018-12-02T05:12:52.548Z,74.43
2018-12-02T05:15:22.798Z,75.02
2018-12-02T05:17:52.254Z,74.88
2018-12-02T05:20:23.143Z,75.18
2018-12-02T05:22:52.488Z,74.89
2018-12-02T05:25:21.714Z,74.75
2018-12-02T05:27:50.921Z,75.08
2018-12-02T05:30:23.273Z,74.09
2018-12-02T05:32:53.649Z,73.80
2018-12-02T05:35:23.030Z,73.52
2018-12-02T05:37:52.241Z,73.74
2018-12-02T05:40:24.410Z,74.22
2018-12-02T05:42:54.521Z,73.39
2018-12-02T05:45:23.800Z,73.60
2018-12-02T05:47:53.030Z,74.33
2018-12-02T05:50:24.372Z,73.62
2018-12-02T05:52:58.779Z,73.67
2018-12-02T05:55:34.499Z,73.95
2018-12-02T05:58:03.743Z,73.69
2018-12-02T06:00:32.911Z,73.55
2018-12-02T06:03:02.075Z,73.96
2018-12-02T06:05:31.307Z,74.12
2018-12-02T06:08:00.492Z,74.07
2018-12-02T06:10:29.660Z,73.42
2018-12-02T06:12:58.892Z,73.49
2018-12-02T06:15:28.055Z,73.22
2018-12-02T06:17:57.256Z,72.95
2018-12-02T06:20:26.956Z,73.11
2018-12-02T06:22:57.553Z,72.54
2018-12-02T06:25:26.785Z,72.87
2018-12-02T06:27:56.012Z,72.32
2018-12-02T06:30:27.529Z,72.34
2018-12-02T06:33:03.924Z,72.76
2018-12-02T06:35:33.080Z,72.85
2018-12-02T06:38:04.055Z,73.05
2018-12-02T06:40:33.281Z,73.34
2018-12-02T06:43:02.528Z,73.96
2018-12-02T06:45:31.721Z,73.91
2018-12-02T06:48:00.946Z,73.61
2018-12-02T06:50:30.152Z,73.99
2018-12-02T06:52:59.362Z,74.06
2018-12-02T06:55:38.288Z,74.12
2018-12-02T07:03:22.403Z,73.49
2018-12-02T07:05:51.611Z,72.93
2018-12-02T07:08:20.863Z,72.62
2018-12-02T07:10:50.135Z,72.75
2018-12-02T07:13:19.444Z,72.83
2018-12-02T07:15:48.656Z,72.43
2018-12-02T07:18:20.934Z,72.37
2018-12-02T07:20:50.303Z,72.42
2018-12-02T07:23:19.959Z,72.06
2018-12-02T07:25:49.267Z,72.06
2018-12-02T07:28:18.574Z,72.03
2018-12-02T07:30:47.876Z,71.46
2018-12-02T07:33:17.122Z,71.66
2018-12-02T07:35:46.452Z,71.84
2018-12-02T07:38:34.824Z,71.21
2018-12-02T07:41:05.380Z,71.68
2018-12-02T07:43:34.608Z,72.92
2018-12-02T07:46:03.851Z,72.83
2018-12-02T07:48:33.167Z,74.53
2018-12-02T07:51:02.551Z,74.01
2018-12-02T07:53:31.818Z,74.50
2018-12-02T07:56:01.024Z,74.77
2018-12-02T07:58:30.348Z,75.39
2018-12-02T08:00:59.572Z,74.85
2018-12-02T08:03:28.975Z,74.79
2018-12-02T08:05:58.264Z,75.13
2018-12-02T08:08:27.521Z,74.86
2018-12-02T08:10:56.757Z,74.83
2018-12-02T08:13:25.981Z,74.58
2018-12-02T08:15:55.188Z,74.63
2018-12-02T08:18:24.389Z,74.29
2018-12-02T08:20:53.620Z,74.40
2018-12-02T08:23:22.824Z,74.91
2018-12-02T08:25:52.070Z,74.91
2018-12-02T08:28:21.339Z,74.42
2018-12-02T08:37:48.564Z,74.06
2018-12-02T08:40:17.834Z,74.96
2018-12-02T08:42:47.097Z,75.84
2018-12-02T08:45:17.699Z,75.93
2018-12-02T08:47:46.973Z,75.70
2018-12-02T08:50:17.673Z,74.95
2018-12-02T08:52:48.789Z,75.47
2018-12-02T08:55:19.483Z,74.95
2018-12-02T08:57:50.138Z,75.43
2018-12-02T09:00:21.210Z,74.51
2018-12-02T09:03:00.128Z,74.71
2018-12-02T09:05:29.336Z,76.25
2018-12-02T09:08:00.793Z,76.22
2018-12-02T09:10:31.788Z,76.03
2018-12-02T09:13:03.259Z,76.19
2018-12-02T09:15:32.460Z,76.76
2018-12-02T09:18:01.720Z,76.12
2018-12-02T09:20:34.420Z,76.62
2018-12-02T09:23:04.404Z,76.46
2018-12-02T09:25:33.646Z,76.50
2018-12-02T09:28:03.536Z,76.63
2018-12-02T09:30:34.619Z,76.13
2018-12-02T09:33:04.176Z,75.68
2018-12-02T09:35:33.464Z,75.41
2018-12-02T09:38:02.776Z,76.42
2018-12-02T09:40:32.149Z,76.38
2018-12-02T09:43:01.465Z,76.62
2018-12-02T09:45:31.236Z,76.99
2018-12-02T09:48:01.531Z,78.83
2018-12-02T09:50:30.754Z,77.58
2018-12-02T09:52:59.944Z,78.56
2018-12-02T09:55:35.272Z,77.86
2018-12-02T09:58:04.580Z,78.58
2018-12-02T10:00:34.432Z,79.00
2018-12-02T10:03:03.283Z,80.03
2018-12-02T10:05:32.483Z,79.18
2018-12-02T10:08:01.771Z,79.18
2018-12-02T10:10:31.028Z,78.56
2018-12-02T10:13:09.835Z,79.15
2018-12-02T10:15:42.296Z,79.53
2018-12-02T10:20:56.574Z,79.50
2018-12-02T10:23:25.864Z,80.77
2018-12-02T10:25:55.564Z,81.21
2018-12-02T10:28:24.816Z,80.83
2018-12-02T10:30:54.002Z,81.11
2018-12-02T10:33:23.291Z,81.42
2018-12-02T10:35:52.612Z,80.88
2018-12-02T10:38:21.828Z,80.98
2018-12-02T10:40:51.018Z,81.25
2018-12-02T10:43:20.221Z,81.88
2018-12-02T10:45:49.454Z,81.50
2018-12-02T10:48:18.743Z,81.28
2018-12-02T10:50:48.067Z,81.15
2018-12-02T10:53:20.937Z,81.13
2018-12-02T10:55:54.211Z,80.99
2018-12-02T10:58:28.971Z,81.17
2018-12-02T11:01:06.816Z,81.34
2018-12-02T11:03:36.445Z,80.88
2018-12-02T11:06:06.165Z,82.06
2018-12-02T11:08:35.730Z,81.34
2018-12-02T11:11:07.491Z,81.46
2018-12-02T11:13:37.243Z,80.89
2018-12-02T11:16:07.884Z,80.80
2018-12-02T11:18:37.369Z,80.79
2018-12-02T11:21:06.969Z,81.23
2018-12-02T11:23:36.429Z,81.06
2018-12-02T11:26:06.631Z,80.84
2018-12-02T11:28:36.050Z,80.95
2018-12-02T11:31:05.777Z,80.24
2018-12-02T11:33:35.203Z,81.00
2018-12-02T11:36:04.792Z,80.54
2018-12-02T11:38:34.196Z,81.07
2018-12-02T11:41:03.670Z,81.87
2018-12-02T11:43:34.243Z,82.14
2018-12-02T11:46:03.557Z,82.89
2018-12-02T11:48:32.952Z,82.77
2018-12-02T11:51:02.374Z,82.85
2018-12-02T11:53:31.801Z,82.60
2018-12-02T11:56:01.168Z,82.85
2018-12-02T11:58:30.529Z,82.59
2018-12-02T12:01:00.062Z,83.31
2018-12-02T12:03:29.829Z,83.16
2018-12-02T12:05:58.855Z,83.60
2018-12-02T12:08:28.239Z,83.98
2018-12-02T12:10:57.665Z,84.85
2018-12-02T12:13:27.155Z,84.86
2018-12-02T12:15:58.021Z,85.26
2018-12-02T12:18:27.449Z,85.39
2018-12-02T12:20:56.892Z,85.76
2018-12-02T12:23:26.238Z,85.65
2018-12-02T12:25:55.711Z,85.68
2018-12-02T12:28:25.125Z,85.15
2018-12-02T12:30:54.629Z,85.55
2018-12-02T12:33:24.052Z,85.33
2018-12-02T12:35:53.528Z,85.59
2018-12-02T12:38:22.909Z,86.12
2018-12-02T12:40:52.800Z,86.42
2018-12-02T12:43:32.508Z,87.05
2018-12-02T12:46:03.543Z,86.93
2018-12-02T12:48:32.962Z,86.74
2018-12-02T12:51:02.439Z,86.71
2018-12-02T12:53:31.950Z,86.37
2018-12-02T12:56:01.426Z,86.71
2018-12-02T12:58:30.833Z,86.35
2018-12-02T13:01:00.209Z,86.33
2018-12-02T13:03:29.623Z,86.45
2018-12-02T13:05:59.000Z,85.84
2018-12-02T13:08:28.460Z,85.67
2018-12-02T13:10:58.170Z,85.37
2018-12-02T13:13:27.619Z,85.55
2018-12-02T13:15:57.112Z,85.00
2018-12-02T13:18:28.772Z,84.62
2018-12-02T13:21:00.636Z,84.37
2018-12-02T13:23:30.144Z,84.71
2018-12-02T13:25:59.557Z,84.12
2018-12-02T13:28:28.947Z,85.29
2018-12-02T13:30:58.349Z,84.57
2018-12-02T13:33:27.722Z,84.67
2018-12-02T13:35:57.113Z,84.92
2018-12-02T13:38:26.474Z,85.21
2018-12-02T13:40:55.855Z,85.72
2018-12-02T13:43:26.007Z,85.52
2018-12-02T13:45:55.533Z,85.73
2018-12-02T13:48:24.970Z,85.42
2018-12-02T13:50:54.398Z,85.25
2018-12-02T13:53:25.439Z,84.60
2018-12-02T13:55:56.069Z,83.67
2018-12-02T13:58:26.908Z,83.76
2018-12-02T14:00:58.370Z,83.36
2018-12-02T14:03:29.299Z,83.53
2018-12-02T14:06:00.648Z,83.17
2018-12-02T14:08:31.483Z,82.87
2018-12-02T14:11:03.143Z,82.58
2018-12-02T14:13:34.488Z,82.86
2018-12-02T14:16:23.662Z,82.57
2018-12-02T14:18:55.107Z,81.90
2018-12-02T14:21:26.149Z,82.72
2018-12-02T14:23:57.194Z,81.81
2018-12-02T14:26:28.545Z,82.22
2018-12-02T14:29:07.980Z,81.65
2018-12-02T14:31:42.510Z,81.94
2018-12-02T14:34:13.953Z,82.13
2018-12-02T14:36:44.896Z,82.42
2018-12-02T14:39:16.030Z,82.40
2018-12-02T14:41:47.802Z,82.28
2018-12-02T14:44:19.045Z,82.87
2018-12-02T14:46:50.905Z,85.24
2018-12-02T14:49:22.462Z,81.27
2018-12-02T14:51:53.199Z,80.23
2018-12-02T14:54:24.032Z,80.56
2018-12-02T14:56:53.513Z,80.03
2018-12-02T14:59:23.058Z,80.64
2018-12-02T15:01:52.625Z,81.27
2018-12-02T15:04:22.063Z,81.13
2018-12-02T15:06:53.350Z,81.31
2018-12-02T15:09:22.775Z,80.96
2018-12-02T15:11:56.261Z,80.89
2018-12-02T15:14:25.642Z,80.44
2018-12-02T15:16:55.282Z,80.38
2018-12-02T15:19:24.803Z,80.24
2018-12-02T15:21:54.251Z,80.29
2018-12-02T15:24:23.727Z,79.98
2018-12-02T15:26:54.777Z,80.29
2018-12-02T15:29:24.363Z,79.47
2018-12-02T15:31:54.601Z,80.12
2018-12-02T15:34:24.151Z,80.24
2018-12-02T15:36:54.105Z,79.69
2018-12-02T15:39:24.219Z,79.02
2018-12-02T15:41:54.514Z,79.83
2018-12-02T15:44:24.130Z,79.43
2018-12-02T15:46:53.541Z,79.02
2018-12-02T15:49:24.411Z,78.56
2018-12-02T15:51:53.917Z,78.75
2018-12-02T15:54:23.313Z,78.74
2018-12-02T15:56:53.772Z,78.93
2018-12-02T15:59:24.596Z,78.82
2018-12-02T16:01:54.137Z,78.33
2018-12-02T16:04:23.663Z,78.73
2018-12-02T16:06:53.273Z,78.31
2018-12-02T16:09:22.814Z,78.80
2018-12-02T16:11:52.304Z,79.48
2018-12-02T16:14:22.292Z,79.55
2018-12-02T16:16:52.986Z,80.50
2018-12-02T16:19:21.316Z,80.42
2018-12-02T16:21:50.761Z,80.54
2018-12-02T16:24:20.272Z,80.88
2018-12-02T16:26:49.680Z,80.91
2018-12-02T16:29:19.187Z,80.82
2018-12-02T16:31:49.951Z,79.95
2018-12-02T16:34:21.771Z,80.69
2018-12-02T16:36:51.352Z,80.74
2018-12-02T16:39:20.833Z,80.52
2018-12-02T16:41:50.361Z,80.38
2018-12-02T16:44:19.781Z,80.61
2018-12-02T16:46:49.243Z,80.54
2018-12-02T16:49:18.696Z,80.28
2018-12-02T16:51:48.257Z,80.88
2018-12-02T16:54:17.969Z,80.43
2018-12-02T16:56:47.843Z,79.89
2018-12-02T16:59:30.161Z,80.13
2018-12-02T17:02:05.346Z,79.74
2018-12-02T17:04:32.916Z,79.83
2018-12-02T17:07:03.883Z,79.07
2018-12-02T17:09:34.116Z,79.41
2018-12-02T17:12:03.788Z,79.22
2018-12-02T17:14:38.545Z,78.96
2018-12-02T17:17:03.056Z,78.95
2018-12-02T17:19:32.594Z,79.18
2018-12-02T17:22:04.595Z,78.55
2018-12-02T17:24:34.214Z,78.43
2018-12-02T17:27:04.020Z,78.37
2018-12-02T17:29:33.569Z,78.90
2018-12-02T17:32:11.171Z,79.06
2018-12-02T17:34:40.643Z,78.44
2018-12-02T17:37:10.243Z,78.02
2018-12-02T17:39:46.503Z,78.54
2018-12-02T17:42:18.271Z,78.50
2018-12-02T17:44:49.303Z,78.10
2018-12-02T17:47:20.863Z,77.97
2018-12-02T17:49:50.444Z,77.58
2018-12-02T17:52:20.407Z,78.56
2018-12-02T17:54:49.869Z,79.10
2018-12-02T17:57:19.486Z,79.34
2018-12-02T17:59:48.838Z,79.34
2018-12-02T18:02:18.289Z,79.55
2018-12-02T18:04:47.685Z,79.76
2018-12-02T18:07:17.132Z,80.92
2018-12-02T18:09:46.555Z,80.95
2018-12-02T18:12:15.949Z,81.45
2018-12-02T18:14:45.425Z,81.48
2018-12-02T18:17:14.910Z,81.48
2018-12-02T18:19:44.357Z,81.10
2018-12-02T18:22:13.794Z,80.86
2018-12-02T18:24:43.235Z,81.61
2018-12-02T18:27:12.636Z,81.43
2018-12-02T18:29:42.045Z,81.48
2018-12-02T18:32:11.448Z,81.60
2018-12-02T18:34:40.865Z,81.97
2018-12-02T18:37:11.762Z,81.60
2018-12-02T18:39:41.243Z,83.04
2018-12-02T18:42:11.075Z,80.93
2018-12-02T18:44:40.604Z,80.46
2018-12-02T18:47:10.324Z,80.97
2018-12-02T18:49:41.367Z,80.85
2018-12-02T18:52:12.102Z,80.56
2018-12-02T18:54:42.637Z,80.21
2018-12-02T18:57:14.179Z,80.52
2018-12-02T18:59:45.129Z,80.60
2018-12-02T19:02:14.728Z,83.64
2018-12-02T19:04:44.150Z,82.05
2018-12-02T19:07:13.653Z,78.95
2018-12-02T19:09:43.103Z,79.36
2018-12-02T19:12:12.641Z,79.17
2018-12-02T19:14:42.299Z,79.37
2018-12-02T19:17:11.836Z,78.89
2018-12-02T19:19:41.382Z,78.76
2018-12-02T19:22:10.856Z,79.14
2018-12-02T19:24:40.317Z,79.40
2018-12-02T19:27:09.816Z,78.89
2018-12-02T19:29:39.400Z,78.70
2018-12-02T19:32:10.239Z,79.03
2018-12-02T19:34:41.490Z,79.68
2018-12-02T19:37:12.598Z,79.20
2018-12-02T19:39:41.993Z,78.76
2018-12-02T19:42:11.352Z,79.08
2018-12-02T19:44:40.813Z,79.24
2018-12-02T19:47:10.211Z,79.07
2018-12-02T19:49:39.777Z,79.23
2018-12-02T19:52:09.238Z,83.40
2018-12-02T19:54:38.723Z,78.30
2018-12-02T19:57:09.147Z,77.72
2018-12-02T19:59:39.233Z,77.68
2018-12-02T20:02:08.719Z,77.84
2018-12-02T20:04:38.356Z,77.67
2018-12-02T20:07:09.565Z,77.81
2018-12-02T20:09:40.708Z,77.88
2018-12-02T20:12:12.330Z,78.19
2018-12-02T20:14:42.587Z,77.13
2018-12-02T20:17:13.632Z,78.40
2018-12-02T20:19:49.494Z,77.94
2018-12-02T20:22:19.024Z,78.24
2018-12-02T20:24:48.490Z,77.61
2018-12-02T20:27:17.978Z,77.55
2018-12-02T20:29:47.433Z,77.35
2018-12-02T20:32:17.611Z,77.39
2018-12-02T20:34:48.207Z,77.12
2018-12-02T20:37:17.676Z,76.82
2018-12-02T20:39:47.133Z,77.10
2018-12-02T20:42:16.753Z,77.18
2018-12-02T20:44:46.189Z,76.60
2018-12-02T20:47:15.710Z,76.91
2018-12-02T20:49:45.215Z,76.55
2018-12-02T20:52:14.645Z,76.80
2018-12-02T20:54:44.169Z,76.75
2018-12-02T20:57:13.615Z,76.73
2018-12-02T20:59:43.048Z,76.69
2018-12-02T21:02:12.451Z,76.73
2018-12-02T21:04:42.012Z,76.98
2018-12-02T21:07:11.388Z,76.62
2018-12-02T21:09:41.799Z,76.76
2018-12-02T21:12:12.208Z,77.46
2018-12-02T21:14:40.908Z,77.50
2018-12-02T21:17:10.285Z,78.24
2018-12-02T21:19:39.897Z,79.78
2018-12-02T21:22:09.448Z,80.37
2018-12-02T21:24:38.895Z,80.42
2018-12-02T21:27:08.500Z,80.63
2018-12-02T21:29:37.965Z,80.95
2018-12-02T21:32:07.703Z,80.85
2018-12-02T21:34:37.132Z,81.23
2018-12-02T21:37:07.379Z,80.71
2018-12-02T21:39:36.178Z,81.38
2018-12-02T21:42:06.207Z,80.79
2018-12-02T21:44:35.609Z,81.20
2018-12-02T21:47:04.995Z,81.23
2018-12-02T21:49:34.419Z,81.04
2018-12-02T21:52:03.813Z,81.34
2018-12-02T21:54:34.060Z,81.91
2018-12-02T21:57:03.663Z,81.92
2018-12-02T21:59:33.825Z,81.91
2018-12-02T22:02:03.480Z,82.58
2018-12-02T22:04:32.843Z,82.96
2018-12-02T22:07:02.269Z,83.55
2018-12-02T22:09:31.766Z,84.31
2018-12-02T22:12:01.217Z,83.88
2018-12-02T22:14:30.644Z,84.28
2018-12-02T22:17:00.038Z,83.99
2018-12-02T22:19:29.857Z,84.29
2018-12-02T22:21:59.244Z,84.46
2018-12-02T22:24:28.627Z,84.75
2018-12-02T22:26:58.042Z,85.15
2018-12-02T22:29:27.565Z,85.14
2018-12-02T22:31:57.937Z,85.03
2018-12-02T22:34:27.347Z,85.54
2018-12-02T22:36:58.305Z,85.44
2018-12-02T22:39:27.629Z,85.97
2018-12-02T22:41:57.049Z,85.71
2018-12-02T22:44:31.369Z,86.51
2018-12-02T22:46:55.853Z,86.21
2018-12-02T22:49:25.251Z,86.42
2018-12-02T22:51:54.580Z,86.80
2018-12-02T22:54:24.021Z,87.18
2018-12-02T22:56:53.576Z,87.37
2018-12-02T22:59:22.972Z,87.08
2018-12-02T23:01:57.531Z,87.41
2018-12-02T23:04:26.965Z,87.50
2018-12-02T23:06:56.481Z,87.91
2018-12-02T23:09:25.881Z,87.96
2018-12-02T23:11:55.402Z,87.45
2018-12-02T23:14:24.826Z,88.19
2018-12-02T23:17:24.640Z,87.63
2018-12-02T23:19:54.029Z,87.70
2018-12-02T23:22:23.528Z,88.00
2018-12-02T23:24:52.873Z,87.36
2018-12-02T23:27:22.371Z,87.57
2018-12-02T23:29:51.755Z,87.61
2018-12-02T23:32:21.163Z,87.35
2018-12-02T23:34:50.483Z,87.50
2018-12-02T23:37:20.868Z,87.53
2018-12-02T23:39:50.313Z,87.78
2018-12-02T23:42:19.719Z,87.27
2018-12-02T23:44:49.194Z,87.24
2018-12-02T23:47:18.578Z,87.29
2018-12-02T23:49:48.078Z,87.37
2018-12-02T23:52:17.597Z,87.48
2018-12-02T23:54:47.047Z,87.49
2018-12-02T23:57:16.487Z,87.03
2018-12-02T23:59:45.939Z,86.89
